createdAt,value
2018-07-22T00:01:22.084Z,93360.56
2018-07-22T00:03:50.461Z,93354.02
2018-07-22T00:06:18.740Z,93360.72
2018-07-22T00:08:47.031Z,93362.16
2018-07-22T00:11:15.315Z,93362.19
2018-07-22T00:13:43.852Z,93359.81
2018-07-22T00:16:12.148Z,93355.09
2018-07-22T00:18:40.354Z,93349.16
2018-07-22T00:21:08.543Z,93342.38
2018-07-22T00:23:36.844Z,93347.16
2018-07-22T00:26:05.062Z,93350.11
2018-07-22T00:28:33.370Z,93351.17
2018-07-22T00:31:01.593Z,93357.26
2018-07-22T00:33:29.851Z,93368.33
2018-07-22T00:35:58.197Z,93362.30
2018-07-22T00:38:26.381Z,93370.16
2018-07-22T00:40:54.669Z,93368.75
2018-07-22T00:43:22.995Z,93356.28
2018-07-22T00:45:51.217Z,93364.00
2018-07-22T00:48:19.463Z,93358.31
2018-07-22T00:50:47.712Z,93352.47
2018-07-22T00:53:15.964Z,93355.08
2018-07-22T00:55:44.158Z,93352.97
2018-07-22T00:58:12.483Z,93350.36
2018-07-22T01:00:40.746Z,93354.52
2018-07-22T01:03:08.980Z,93345.03
2018-07-22T01:05:37.359Z,93344.30
2018-07-22T01:08:05.567Z,93350.27
2018-07-22T01:10:33.666Z,93346.00
2018-07-22T01:13:01.985Z,93356.59
2018-07-22T01:15:30.057Z,93353.56
2018-07-22T01:17:58.269Z,93346.17
2018-07-22T01:20:26.367Z,93347.03
2018-07-22T01:22:54.542Z,93344.97
2018-07-22T01:25:23.601Z,93338.31
2018-07-22T01:27:51.873Z,93338.21
2018-07-22T01:30:20.123Z,93332.41
2018-07-22T01:32:48.235Z,93339.05
2018-07-22T01:35:16.316Z,93342.75
2018-07-22T01:37:44.337Z,93339.44
2018-07-22T01:40:12.453Z,93333.28
2018-07-22T01:42:40.521Z,93336.13
2018-07-22T01:45:08.728Z,93336.94
2018-07-22T01:47:36.859Z,93336.10
2018-07-22T01:50:05.242Z,93337.61
2018-07-22T01:52:33.313Z,93338.47
2018-07-22T01:55:01.512Z,93331.24
2018-07-22T01:57:29.613Z,93326.88
2018-07-22T01:59:57.999Z,93322.26
2018-07-22T02:02:26.031Z,93324.28
2018-07-22T02:04:54.189Z,93320.73
2018-07-22T02:07:22.207Z,93317.06
2018-07-22T02:09:50.413Z,93318.37
2018-07-22T02:12:18.712Z,93326.33
2018-07-22T02:14:46.853Z,93327.03
2018-07-22T02:17:15.002Z,93326.10
2018-07-22T02:19:43.204Z,93325.84
2018-07-22T02:22:11.295Z,93320.27
2018-07-22T02:24:39.407Z,93316.19
2018-07-22T02:27:08.083Z,93317.06
2018-07-22T02:29:36.180Z,93325.13
2018-07-22T02:32:04.259Z,93319.44
2018-07-22T02:34:32.463Z,93320.74
2018-07-22T02:37:00.566Z,93316.95
2018-07-22T02:39:28.664Z,93310.17
2018-07-22T02:41:56.927Z,93316.22
2018-07-22T02:44:25.064Z,93317.79
2018-07-22T02:46:53.160Z,93317.31
2018-07-22T02:49:21.293Z,93314.22
2018-07-22T02:51:49.634Z,93313.62
2018-07-22T02:54:17.782Z,93315.52
2018-07-22T02:56:45.903Z,93317.70
2018-07-22T02:59:13.926Z,93319.72
2018-07-22T03:01:42.057Z,93324.70
2018-07-22T03:04:10.210Z,93320.44
2018-07-22T03:06:38.218Z,93316.52
2018-07-22T03:09:07.891Z,93310.22
2018-07-22T03:11:36.022Z,93309.39
2018-07-22T03:14:04.245Z,93309.02
2018-07-22T03:16:32.383Z,93304.76
2018-07-22T03:19:00.511Z,93310.69
2018-07-22T03:21:28.787Z,93307.70
2018-07-22T03:23:56.960Z,93311.86
2018-07-22T03:26:25.053Z,93305.90
2018-07-22T03:28:53.132Z,93304.68
2018-07-22T03:31:21.426Z,93305.94
2018-07-22T03:33:49.503Z,93303.05
2018-07-22T03:36:17.691Z,93301.95
2018-07-22T03:38:45.768Z,93299.00
2018-07-22T03:41:13.853Z,93297.27
2018-07-22T03:43:42.024Z,93293.86
2018-07-22T03:46:10.153Z,93293.57
2018-07-22T03:48:38.225Z,93287.13
2018-07-22T03:51:06.497Z,93295.41
2018-07-22T03:53:34.580Z,93297.38
2018-07-22T03:56:02.606Z,93296.05
2018-07-22T03:58:30.999Z,93298.45
2018-07-22T04:00:59.084Z,93292.23
2018-07-22T04:03:27.163Z,93288.58
2018-07-22T04:05:55.376Z,93293.73
2018-07-22T04:08:23.467Z,93293.31
2018-07-22T04:10:51.717Z,93300.17
2018-07-22T04:13:19.992Z,93301.44
2018-07-22T04:15:48.294Z,93299.87
2018-07-22T04:18:16.411Z,93298.95
2018-07-22T04:20:44.567Z,93299.45
2018-07-22T04:23:12.816Z,93294.84
2018-07-22T04:25:40.852Z,93300.48
2018-07-22T04:28:09.062Z,93305.61
2018-07-22T04:30:37.182Z,93306.27
2018-07-22T04:33:05.419Z,93304.61
2018-07-22T04:35:33.449Z,93302.97
2018-07-22T04:38:01.610Z,93308.09
2018-07-22T04:40:29.707Z,93303.14
2018-07-22T04:42:58.023Z,93304.78
2018-07-22T04:45:26.441Z,93312.66
2018-07-22T04:47:54.483Z,93309.91
2018-07-22T04:50:22.663Z,93314.89
2018-07-22T04:52:50.735Z,93314.05
2018-07-22T04:55:32.710Z,93311.80
2018-07-22T04:58:00.784Z,93316.15
2018-07-22T05:00:28.888Z,93306.92
2018-07-22T05:02:56.933Z,93307.44
2018-07-22T05:05:24.972Z,93311.69
2018-07-22T05:07:53.081Z,93314.03
2018-07-22T05:10:21.350Z,93306.94
2018-07-22T05:12:49.696Z,93308.65
2018-07-22T05:15:17.980Z,93308.23
2018-07-22T05:17:46.312Z,93306.47
2018-07-22T05:20:14.531Z,93308.22
2018-07-22T05:22:42.579Z,93307.69
2018-07-22T05:25:10.795Z,93311.69
2018-07-22T05:27:40.371Z,93313.02
2018-07-22T05:30:09.544Z,93310.89
2018-07-22T05:32:37.968Z,93302.56
2018-07-22T05:35:06.357Z,93307.68
2018-07-22T05:37:34.815Z,93304.95
2018-07-22T05:40:03.125Z,93311.53
2018-07-22T05:42:31.290Z,93302.91
2018-07-22T05:44:59.570Z,93311.20
2018-07-22T05:47:27.838Z,93309.75
2018-07-22T05:49:56.068Z,93309.21
2018-07-22T05:52:24.174Z,93307.21
2018-07-22T05:54:52.478Z,93316.67
2018-07-22T05:57:20.930Z,93310.63
2018-07-22T05:59:49.561Z,93315.47
2018-07-22T06:02:18.413Z,93313.59
2018-07-22T06:04:47.075Z,93310.71
2018-07-22T06:07:15.754Z,93305.83
2018-07-22T06:09:44.337Z,93309.80
2018-07-22T06:12:13.019Z,93302.58
2018-07-22T06:14:41.511Z,93309.35
2018-07-22T06:17:10.573Z,93305.79
2018-07-22T06:19:39.064Z,93302.33
2018-07-22T06:22:07.651Z,93298.96
2018-07-22T06:24:36.129Z,93297.36
2018-07-22T06:27:04.957Z,93287.97
2018-07-22T06:29:33.631Z,93284.67
2018-07-22T06:32:02.339Z,93277.95
2018-07-22T06:34:31.356Z,93276.09
2018-07-22T06:37:00.656Z,93268.04
2018-07-22T06:39:29.094Z,93270.05
2018-07-22T06:41:57.527Z,93277.25
2018-07-22T06:44:26.038Z,93266.76
2018-07-22T06:46:54.951Z,93263.20
2018-07-22T06:49:23.285Z,93265.64
2018-07-22T06:51:52.067Z,93260.58
2018-07-22T06:54:20.606Z,93263.37
2018-07-22T06:56:49.817Z,93261.38
2018-07-22T06:59:20.044Z,93267.14
2018-07-22T07:01:48.696Z,93259.89
2018-07-22T07:04:17.077Z,93250.23
2018-07-22T07:06:45.553Z,93246.56
2018-07-22T07:09:14.227Z,93245.48
2018-07-22T07:11:42.831Z,93245.26
2018-07-22T07:14:11.692Z,93246.63
2018-07-22T07:16:40.352Z,93242.78
2018-07-22T07:19:09.586Z,93234.31
2018-07-22T07:21:38.746Z,93234.74
2018-07-22T07:24:07.804Z,93231.11
2018-07-22T07:26:36.422Z,93228.45
2018-07-22T07:29:05.568Z,93219.13
2018-07-22T07:31:34.222Z,93226.56
2018-07-22T07:34:02.871Z,93226.25
2018-07-22T07:36:31.505Z,93222.76
2018-07-22T07:39:00.418Z,93223.58
2018-07-22T07:41:29.093Z,93225.13
2018-07-22T07:43:58.234Z,93224.94
2018-07-22T07:46:27.233Z,93228.92
2018-07-22T07:48:56.649Z,93222.33
2018-07-22T07:51:25.309Z,93218.53
2018-07-22T07:53:54.561Z,93213.48
2018-07-22T07:56:23.722Z,93214.48
2018-07-22T07:58:52.969Z,93203.15
2018-07-22T08:01:21.757Z,93205.92
2018-07-22T08:03:50.593Z,93199.52
2018-07-22T08:06:19.211Z,93188.56
2018-07-22T08:08:47.880Z,93189.21
2018-07-22T08:11:16.634Z,93189.42
2018-07-22T08:13:46.959Z,93189.19
2018-07-22T08:16:15.796Z,93185.66
2018-07-22T08:18:45.018Z,93179.72
2018-07-22T08:21:13.681Z,93180.37
2018-07-22T08:23:42.407Z,93168.09
2018-07-22T08:26:11.000Z,93168.23
2018-07-22T08:29:48.503Z,93171.37
2018-07-22T08:32:17.629Z,93157.33
2018-07-22T08:34:46.148Z,93157.21
2018-07-22T08:37:14.726Z,93155.08
2018-07-22T08:39:43.519Z,93154.06
2018-07-22T08:42:11.971Z,93151.00
2018-07-22T08:44:40.608Z,93146.81
2018-07-22T08:47:09.029Z,93148.77
2018-07-22T08:49:37.927Z,93139.90
2018-07-22T08:52:06.474Z,93136.34
2018-07-22T08:54:35.136Z,93136.27
2018-07-22T08:57:03.518Z,93132.73
2018-07-22T08:59:31.880Z,93134.98
2018-07-22T09:02:00.211Z,93126.24
2018-07-22T09:04:28.861Z,93125.55
2018-07-22T09:06:57.399Z,93116.98
2018-07-22T09:09:26.039Z,93117.38
2018-07-22T09:11:54.914Z,93117.14
2018-07-22T09:14:24.202Z,93114.14
2018-07-22T09:16:52.812Z,93117.30
2018-07-22T09:19:21.462Z,93116.88
2018-07-22T09:21:50.200Z,93112.63
2018-07-22T09:24:18.698Z,93109.39
2018-07-22T09:26:47.102Z,93109.62
2018-07-22T09:29:15.492Z,93111.69
2018-07-22T09:31:43.962Z,93119.98
2018-07-22T09:34:13.133Z,93109.49
2018-07-22T09:36:42.198Z,93111.67
2018-07-22T09:39:11.792Z,93098.54
2018-07-22T09:41:40.749Z,93103.33
2018-07-22T09:44:10.064Z,93101.48
2018-07-22T09:46:38.641Z,93107.20
2018-07-22T09:49:07.033Z,93101.83
2018-07-22T09:51:35.504Z,93096.25
2018-07-22T09:54:04.019Z,93096.70
2018-07-22T09:56:32.329Z,93091.89
2018-07-22T09:59:00.969Z,93089.58
2018-07-22T10:01:29.371Z,93083.76
2018-07-22T10:03:57.845Z,93083.33
2018-07-22T10:06:26.378Z,93079.95
2018-07-22T10:08:54.777Z,93083.75
2018-07-22T10:11:23.172Z,93085.73
2018-07-22T10:13:51.890Z,93083.83
2018-07-22T10:16:20.983Z,93076.75
2018-07-22T10:18:49.407Z,93080.42
2018-07-22T10:21:17.681Z,93070.88
2018-07-22T10:23:46.059Z,93066.11
2018-07-22T10:26:14.400Z,93061.41
2018-07-22T10:28:44.533Z,93055.59
2018-07-22T10:31:13.034Z,93050.77
2018-07-22T10:33:41.497Z,93050.58
2018-07-22T10:36:10.103Z,93049.16
2018-07-22T10:38:38.568Z,93049.73
2018-07-22T10:41:07.026Z,93047.70
2018-07-22T10:43:35.365Z,93044.41
2018-07-22T10:46:04.020Z,93040.86
2018-07-22T10:48:32.709Z,93031.98
2018-07-22T10:51:01.209Z,93031.38
2018-07-22T10:53:30.099Z,93020.02
2018-07-22T10:55:58.636Z,93021.55
2018-07-22T10:58:27.212Z,93019.25
2018-07-22T11:00:55.648Z,93006.73
2018-07-22T11:03:24.107Z,93009.66
2018-07-22T11:05:52.565Z,93009.51
2018-07-22T11:08:21.052Z,93012.29
2018-07-22T11:10:49.617Z,93008.02
2018-07-22T11:13:18.024Z,93002.45
2018-07-22T11:15:46.442Z,92998.06
2018-07-22T11:18:14.917Z,92996.37
2018-07-22T11:20:43.512Z,92989.64
2018-07-22T11:23:12.315Z,92985.70
2018-07-22T11:25:40.896Z,92988.30
2018-07-22T11:28:09.731Z,92987.02
2018-07-22T11:30:38.606Z,92984.88
2018-07-22T11:33:07.108Z,92982.39
2018-07-22T11:35:35.862Z,92976.91
2018-07-22T11:38:04.909Z,92976.81
2018-07-22T11:40:33.598Z,92975.66
2018-07-22T11:43:02.261Z,92968.72
2018-07-22T11:45:30.712Z,92969.78
2018-07-22T11:47:59.127Z,92961.94
2018-07-22T11:50:28.181Z,92961.40
2018-07-22T11:52:58.439Z,92956.94
2018-07-22T11:55:27.274Z,92954.53
2018-07-22T11:57:55.595Z,92957.06
2018-07-22T12:00:24.162Z,92960.55
2018-07-22T12:02:52.673Z,92958.00
2018-07-22T12:05:21.738Z,92960.38
2018-07-22T12:07:50.092Z,92952.36
2018-07-22T12:10:18.537Z,92951.97
2018-07-22T12:12:47.051Z,92949.52
2018-07-22T12:15:15.718Z,92950.13
2018-07-22T12:17:44.257Z,92943.86
2018-07-22T12:20:12.818Z,92940.42
2018-07-22T12:22:41.844Z,92941.19
2018-07-22T12:25:10.427Z,92937.20
2018-07-22T12:27:38.926Z,92938.08
2018-07-22T12:30:07.519Z,92932.69
2018-07-22T12:32:35.898Z,92926.63
2018-07-22T12:35:04.410Z,92914.72
2018-07-22T12:37:32.841Z,92916.94
2018-07-22T12:40:01.313Z,92908.91
2018-07-22T12:42:29.590Z,92907.27
2018-07-22T12:44:57.748Z,92910.07
2018-07-22T12:47:26.072Z,92896.30
2018-07-22T12:49:54.325Z,92891.36
2018-07-22T12:52:22.686Z,92886.75
2018-07-22T12:54:51.274Z,92881.87
2018-07-22T12:57:19.534Z,92884.97
2018-07-22T12:59:48.288Z,92884.91
2018-07-22T13:02:16.588Z,92888.06
2018-07-22T13:04:44.923Z,92890.81
2018-07-22T13:07:13.622Z,92889.97
2018-07-22T13:09:42.094Z,92885.38
2018-07-22T13:12:10.357Z,92886.89
2018-07-22T13:14:38.596Z,92899.09
2018-07-22T13:17:07.142Z,92893.86
2018-07-22T13:19:35.427Z,92893.66
2018-07-22T13:22:03.622Z,92901.94
2018-07-22T13:24:31.909Z,92899.75
2018-07-22T13:27:00.226Z,92894.31
2018-07-22T13:29:28.397Z,92891.73
2018-07-22T13:31:56.957Z,92885.22
2018-07-22T13:34:25.218Z,92884.48
2018-07-22T13:36:53.463Z,92881.41
2018-07-22T13:39:22.005Z,92883.16
2018-07-22T13:41:50.419Z,92874.20
2018-07-22T13:44:18.749Z,92876.67
2018-07-22T13:46:47.308Z,92877.53
2018-07-22T13:49:15.716Z,92873.52
2018-07-22T13:51:44.200Z,92869.31
2018-07-22T13:54:12.396Z,92871.61
2018-07-22T13:56:40.911Z,92864.48
2018-07-22T13:59:09.223Z,92860.72
2018-07-22T14:01:37.540Z,92865.91
2018-07-22T14:04:06.101Z,92858.23
2018-07-22T14:06:34.830Z,92849.02
2018-07-22T14:09:03.433Z,92850.81
2018-07-22T14:11:31.693Z,92842.55
2018-07-22T14:13:59.968Z,92841.38
2018-07-22T14:16:28.356Z,92834.86
2018-07-22T14:18:56.590Z,92838.06
2018-07-22T14:21:24.943Z,92834.80
2018-07-22T14:23:53.489Z,92830.77
2018-07-22T14:26:21.839Z,92835.03
2018-07-22T14:28:50.006Z,92832.33
2018-07-22T14:31:18.367Z,92835.91
2018-07-22T14:33:46.479Z,92826.38
2018-07-22T14:36:14.840Z,92827.70
2018-07-22T14:38:43.219Z,92821.80
2018-07-22T14:41:11.413Z,92817.38
2018-07-22T14:43:39.590Z,92818.73
2018-07-22T14:46:07.895Z,92817.02
2018-07-22T14:48:36.182Z,92821.18
2018-07-22T14:51:04.450Z,92821.48
2018-07-22T14:53:32.794Z,92818.22
2018-07-22T14:56:01.082Z,92815.45
2018-07-22T14:58:29.383Z,92815.71
2018-07-22T15:00:57.744Z,92822.73
2018-07-22T15:03:25.939Z,92819.10
2018-07-22T15:05:54.224Z,92814.61
2018-07-22T15:08:22.704Z,92816.19
2018-07-22T15:10:51.011Z,92812.12
2018-07-22T15:13:19.369Z,92805.33
2018-07-22T15:15:47.779Z,92808.63
2018-07-22T15:18:15.860Z,92813.55
2018-07-22T15:20:44.309Z,92810.56
2018-07-22T15:23:13.064Z,92812.36
2018-07-22T15:25:41.524Z,92808.97
2018-07-22T15:28:09.811Z,92808.28
2018-07-22T15:30:38.319Z,92805.83
2018-07-22T15:33:06.553Z,92801.45
2018-07-22T15:35:34.937Z,92801.17
2018-07-22T15:38:04.217Z,92795.16
2018-07-22T15:40:33.956Z,92794.43
2018-07-22T15:43:02.638Z,92793.20
2018-07-22T15:45:31.520Z,92787.50
2018-07-22T15:47:59.664Z,92781.54
2018-07-22T15:50:28.712Z,92790.19
2018-07-22T15:52:57.931Z,92788.13
2018-07-22T15:55:27.302Z,92787.60
2018-07-22T15:57:55.838Z,92780.54
2018-07-22T16:00:24.110Z,92782.25
2018-07-22T16:02:52.220Z,92785.31
2018-07-22T16:05:20.444Z,92785.23
2018-07-22T16:07:48.891Z,92780.08
2018-07-22T16:10:17.549Z,92787.33
2018-07-22T16:12:46.212Z,92790.69
2018-07-22T16:15:14.763Z,92786.23
2018-07-22T16:17:43.481Z,92791.59
2018-07-22T16:20:13.224Z,92794.66
2018-07-22T16:22:41.822Z,92797.38
2018-07-22T16:25:10.838Z,92798.16
2018-07-22T16:27:39.359Z,92785.53
2018-07-22T16:30:08.910Z,92790.44
2018-07-22T16:32:37.974Z,92792.52
2018-07-22T16:35:06.669Z,92789.91
2018-07-22T16:37:35.599Z,92782.65
2018-07-22T16:40:04.864Z,92788.41
2018-07-22T16:42:33.626Z,92789.84
2018-07-22T16:45:02.110Z,92792.47
2018-07-22T16:47:30.669Z,92789.47
2018-07-22T16:49:59.314Z,92787.20
2018-07-22T16:52:27.813Z,92792.27
2018-07-22T16:54:56.472Z,92787.81
2018-07-22T16:57:25.238Z,92786.02
2018-07-22T16:59:53.639Z,92781.19
2018-07-22T17:02:22.291Z,92772.33
2018-07-22T17:04:50.929Z,92782.70
2018-07-22T17:07:19.723Z,92780.09
2018-07-22T17:09:48.172Z,92787.06
2018-07-22T17:12:16.622Z,92786.47
2018-07-22T17:14:45.066Z,92790.41
2018-07-22T17:17:13.852Z,92794.09
2018-07-22T17:19:42.450Z,92790.52
2018-07-22T17:22:10.892Z,92791.91
2018-07-22T17:24:39.564Z,92799.27
2018-07-22T17:27:08.195Z,92795.47
2018-07-22T17:29:37.055Z,92797.97
2018-07-22T17:32:05.705Z,92795.75
2018-07-22T17:34:34.186Z,92803.20
2018-07-22T17:37:03.179Z,92807.75
2018-07-22T17:39:31.702Z,92811.11
2018-07-22T17:42:00.299Z,92818.36
2018-07-22T17:44:28.759Z,92819.88
2018-07-22T17:46:57.187Z,92814.31
2018-07-22T17:49:25.555Z,92818.72
2018-07-22T17:51:54.237Z,92820.10
2018-07-22T17:54:22.695Z,92824.36
2018-07-22T17:56:51.354Z,92814.96
2018-07-22T17:59:20.214Z,92824.06
2018-07-22T18:01:48.602Z,92825.16
2018-07-22T18:04:17.019Z,92826.19
2018-07-22T18:06:45.307Z,92827.16
2018-07-22T18:09:13.574Z,92834.52
2018-07-22T18:11:41.796Z,92834.41
2018-07-22T18:14:10.044Z,92846.80
2018-07-22T18:16:38.136Z,92850.34
2018-07-22T18:19:06.339Z,92841.11
2018-07-22T18:21:34.489Z,92846.97
2018-07-22T18:24:02.787Z,92843.52
2018-07-22T18:26:30.982Z,92849.19
2018-07-22T18:28:59.265Z,92852.86
2018-07-22T18:31:27.420Z,92858.55
2018-07-22T18:33:55.705Z,92859.23
2018-07-22T18:36:24.058Z,92860.64
2018-07-22T18:38:52.435Z,92858.28
2018-07-22T18:41:20.695Z,92858.48
2018-07-22T18:43:49.116Z,92866.73
2018-07-22T18:46:17.554Z,92870.70
2018-07-22T18:48:45.932Z,92876.09
2018-07-22T18:51:14.208Z,92873.98
2018-07-22T18:53:42.537Z,92878.80
2018-07-22T18:56:10.702Z,92879.84
2018-07-22T18:58:39.001Z,92883.74
2018-07-22T19:01:07.410Z,92878.52
2018-07-22T19:03:35.749Z,92886.13
2018-07-22T19:06:04.000Z,92881.79
2018-07-22T19:08:32.395Z,92885.81
2018-07-22T19:11:00.892Z,92883.69
2018-07-22T19:13:29.152Z,92883.50
2018-07-22T19:15:57.554Z,92886.66
2018-07-22T19:18:25.769Z,92881.78
2018-07-22T19:20:54.105Z,92875.61
2018-07-22T19:23:22.309Z,92875.36
2018-07-22T19:25:50.546Z,92882.72
2018-07-22T19:28:18.902Z,92878.66
2018-07-22T19:30:47.190Z,92898.19
2018-07-22T19:33:15.296Z,92909.73
2018-07-22T19:35:43.462Z,92904.61
2018-07-22T19:38:11.667Z,92906.25
2018-07-22T19:40:40.030Z,92908.75
2018-07-22T19:43:08.267Z,92921.26
2018-07-22T19:45:36.569Z,92924.90
2018-07-22T19:48:05.233Z,92924.41
2018-07-22T19:50:33.575Z,92925.60
2018-07-22T19:53:01.755Z,92928.22
2018-07-22T19:55:29.832Z,92924.61
2018-07-22T19:57:58.300Z,92921.79
2018-07-22T20:00:26.739Z,92925.78
2018-07-22T20:02:55.194Z,92924.30
2018-07-22T20:05:23.657Z,92924.66
2018-07-22T20:07:52.006Z,92937.20
2018-07-22T20:10:20.529Z,92931.92
2018-07-22T20:12:48.836Z,92933.40
2018-07-22T20:15:17.100Z,92935.37
2018-07-22T20:17:45.676Z,92925.84
2018-07-22T20:20:13.815Z,92922.87
2018-07-22T20:22:42.235Z,92917.75
2018-07-22T20:25:10.430Z,92904.23
2018-07-22T20:27:38.827Z,92897.67
2018-07-22T20:30:07.097Z,92907.41
2018-07-22T20:32:35.869Z,92902.30
2018-07-22T20:35:04.299Z,92902.11
2018-07-22T20:37:32.610Z,92908.84
2018-07-22T20:40:00.956Z,92918.91
2018-07-22T20:42:29.515Z,92930.59
2018-07-22T20:44:58.044Z,92931.28
2018-07-22T20:47:26.199Z,92926.97
2018-07-22T20:49:54.491Z,92928.98
2018-07-22T20:52:22.708Z,92927.33
2018-07-22T20:54:51.010Z,92926.34
2018-07-22T20:57:19.211Z,92933.26
2018-07-22T21:02:15.082Z,92943.00
2018-07-22T21:04:43.201Z,92941.66
2018-07-22T21:07:11.423Z,92941.00
2018-07-22T21:09:39.628Z,92938.52
2018-07-22T21:12:46.061Z,92935.54
2018-07-22T21:15:15.231Z,92939.49
2018-07-22T21:17:44.583Z,92936.04
2018-07-22T21:20:12.790Z,92927.33
2018-07-22T21:22:41.716Z,92928.45
2018-07-22T21:25:10.021Z,92923.66
2018-07-22T21:27:38.125Z,92915.56
2018-07-22T21:30:07.476Z,92908.16
2018-07-22T21:32:35.609Z,92922.80
2018-07-22T21:35:03.833Z,92917.38
2018-07-22T21:37:31.986Z,92921.63
2018-07-22T21:40:00.119Z,92924.41
2018-07-22T21:42:28.348Z,92922.89
2018-07-22T21:44:56.523Z,92927.47
2018-07-22T21:47:24.683Z,92926.15
2018-07-22T21:49:53.168Z,92932.22
2018-07-22T21:52:21.336Z,92926.59
2018-07-22T21:54:49.434Z,92921.18
2018-07-22T21:57:17.724Z,92922.14
2018-07-22T21:59:45.910Z,92923.45
2018-07-22T22:02:14.100Z,92928.86
2018-07-22T22:04:42.251Z,92937.70
2018-07-22T22:07:10.388Z,92947.20
2018-07-22T22:09:38.549Z,92936.31
2018-07-22T22:12:06.723Z,92941.02
2018-07-22T22:14:34.811Z,92948.19
2018-07-22T22:17:02.869Z,92953.73
2018-07-22T22:19:31.207Z,92952.20
2018-07-22T22:21:59.373Z,92947.38
2018-07-22T22:24:27.451Z,92964.55
2018-07-22T22:26:55.580Z,92961.69
2018-07-22T22:29:23.706Z,92971.01
2018-07-22T22:31:51.780Z,92967.63
2018-07-22T22:34:19.771Z,92968.06
2018-07-22T22:36:47.931Z,92971.41
2018-07-22T22:39:16.021Z,92968.09
2018-07-22T22:41:44.068Z,92959.27
2018-07-22T22:44:12.094Z,92960.34
2018-07-22T22:46:40.678Z,92958.98
2018-07-22T22:49:09.368Z,92956.11
2018-07-22T22:51:37.463Z,92960.97
2018-07-22T22:54:05.542Z,92953.50
2018-07-22T22:56:33.596Z,92953.47
2018-07-22T22:59:12.736Z,92953.63
2018-07-22T23:01:40.804Z,92951.61
2018-07-22T23:04:08.895Z,92947.70
2018-07-22T23:06:36.936Z,92948.83
2018-07-22T23:09:07.791Z,92949.25
2018-07-22T23:11:35.947Z,92941.89
2018-07-22T23:14:04.265Z,92936.17
2018-07-22T23:16:32.337Z,92940.55
2018-07-22T23:19:00.385Z,92938.56
2018-07-22T23:21:28.534Z,92939.35
2018-07-22T23:23:56.700Z,92934.24
2018-07-22T23:26:24.891Z,92935.52
2018-07-22T23:28:52.916Z,92931.23
2018-07-22T23:31:21.157Z,92925.48
2018-07-22T23:33:49.284Z,92929.60
2018-07-22T23:36:17.412Z,92939.55
2018-07-22T23:38:45.505Z,92939.90
2018-07-22T23:41:13.508Z,92931.81
2018-07-22T23:43:41.537Z,92932.02
2018-07-22T23:46:09.651Z,92935.58
2018-07-22T23:48:37.775Z,92933.99
2018-07-22T23:51:05.916Z,92931.02
2018-07-22T23:53:34.067Z,92922.40
2018-07-22T23:56:02.102Z,92915.34
2018-07-22T23:58:30.529Z,92915.27
